Time;durP1;ratioP1;P1;durP2;ratioP2;P2;SDS_P1;SDS_P2;PMS_P1;PMS_P2;Temp;Humidity;BMP_temperature;BMP_pressure;BME280_temperature;BME280_humidity;BME280_pressure;Samples;Min_cycle;Max_cycle;Signal;HPM_P1;HPM_P2
2022/08/11 00:02:34;;;;;;;4.85;3.88;;;19.00;99.90;;;;;;4973269;28;20068;-80
2022/08/11 00:05:08;;;;;;;6.50;3.50;;;19.00;99.90;;;;;;4971589;28;20047;-81
2022/08/11 00:07:44;;;;;;;5.85;3.70;;;19.00;99.90;;;;;;4968998;28;20147;-80
2022/08/11 00:10:14;;;;;;;;;;;18.90;99.90;;;;;;4971347;28;20183;-80
2022/08/11 00:12:42;;;;;;;6.05;4.60;;;18.90;99.90;;;;;;4987103;28;19930;-81
2022/08/11 00:15:09;;;;;;;5.28;3.88;;;18.90;99.90;;;;;;4973553;28;20054;-80
2022/08/11 00:17:35;;;;;;;5.75;3.70;;;18.90;99.90;;;;;;4979372;28;20083;-81
2022/08/11 00:20:11;;;;;;;7.07;4.53;;;18.90;99.90;;;;;;4987502;28;20043;-80
2022/08/11 00:22:40;;;;;;;6.68;4.28;;;18.80;99.90;;;;;;4955960;28;20079;-80
2022/08/11 00:25:11;;;;;;;5.32;4.18;;;18.80;99.90;;;;;;4980655;28;20051;-81
2022/08/11 00:27:39;;;;;;;5.95;4.15;;;18.80;99.90;;;;;;4962593;28;20126;-80
2022/08/11 00:30:11;;;;;;;6.45;4.72;;;18.80;99.90;;;;;;4989285;28;20066;-80
2022/08/11 00:32:39;;;;;;;7.63;4.88;;;18.80;99.90;;;;;;4985835;28;20061;-81
2022/08/11 00:35:10;;;;;;;5.80;4.43;;;18.80;99.90;;;;;;4950347;28;20040;-81
2022/08/11 00:37:37;;;;;;;6.47;4.47;;;18.80;99.90;;;;;;4977101;28;21598;-81
2022/08/11 00:40:22;;;;;;;5.45;4.50;;;18.70;99.90;;;;;;4981491;28;20058;-81
2022/08/11 00:43:21;;;;;;;5.13;4.35;;;18.70;99.90;;;;;;4980452;28;20047;-80
2022/08/11 00:46:22;;;;;;;6.07;4.65;;;18.70;99.90;;;;;;4949796;28;20138;-80
2022/08/11 00:49:09;;;;;;;7.45;5.72;;;18.60;99.90;;;;;;4995273;28;20312;-81
2022/08/11 00:52:05;;;;;;;6.75;5.15;;;18.60;99.90;;;;;;4972114;28;20081;-81
2022/08/11 00:54:31;;;;;;;;;;;18.60;99.90;;;;;;4955041;28;20050;-81
2022/08/11 00:57:10;;;;;;;10.20;5.60;;;18.60;99.90;;;;;;4989888;28;20344;-81
2022/08/11 01:00:08;;;;;;;5.47;4.90;;;18.50;99.90;;;;;;4970492;28;20310;-81
2022/08/11 01:03:24;;;;;;;6.93;5.72;;;18.50;99.90;;;;;;4952362;28;20059;-79
2022/08/11 01:06:19;;;;;;;7.65;5.40;;;18.50;99.90;;;;;;4949978;28;20105;-80
2022/08/11 01:09:17;;;;;;;6.03;5.13;;;18.50;99.90;;;;;;4987058;28;20381;-80
2022/08/11 01:12:04;;;;;;;6.47;4.97;;;18.50;99.90;;;;;;4942054;28;20496;-80
2022/08/11 01:14:35;;;;;;;7.45;5.18;;;18.40;99.90;;;;;;4984042;28;20516;-79
2022/08/11 01:17:39;;;;;;;7.18;5.55;;;18.40;99.90;;;;;;4969914;28;20046;-79
2022/08/11 01:20:15;;;;;;;6.53;5.15;;;18.40;99.90;;;;;;4969015;28;20079;-80
2022/08/11 01:22:41;;;;;;;9.20;6.03;;;18.40;99.90;;;;;;4968249;28;20142;-80
2022/08/11 01:25:18;;;;;;;7.85;5.60;;;18.30;99.90;;;;;;4985125;28;20125;-81
2022/08/11 01:28:22;;;;;;;8.32;5.38;;;18.30;99.90;;;;;;4966387;28;20142;-80
2022/08/11 01:31:19;;;;;;;6.80;4.93;;;18.30;99.90;;;;;;4983742;28;20050;-80
2022/08/11 01:34:23;;;;;;;6.85;5.32;;;18.30;99.90;;;;;;4971596;28;20059;-78
2022/08/11 01:37:27;;;;;;;6.20;5.03;;;18.20;99.90;;;;;;4971164;28;20059;-80
2022/08/11 01:39:52;;;;;;;9.63;5.80;;;18.20;99.90;;;;;;4981949;28;20237;-80
2022/08/11 01:45:47;;;;;;;6.85;5.25;;;18.20;99.90;;;;;;4954615;28;20573;-79
2022/08/11 01:48:22;;;;;;;6.55;5.18;;;18.20;99.90;;;;;;4985330;28;20139;-80
2022/08/11 01:51:00;;;;;;;6.93;5.55;;;18.20;99.90;;;;;;4969410;28;20053;-80
2022/08/11 01:53:46;;;;;;;6.78;5.78;;;18.10;99.90;;;;;;4971316;28;20071;-80
2022/08/11 01:56:39;;;;;;;10.10;6.15;;;18.10;99.90;;;;;;4974079;28;20039;-79
2022/08/11 01:59:32;;;;;;;5.88;5.00;;;18.10;99.90;;;;;;4969031;28;20047;-79
2022/08/11 02:02:17;;;;;;;7.53;5.30;;;18.00;99.90;;;;;;4968099;28;20055;-80
2022/08/11 02:05:16;;;;;;;8.20;5.45;;;18.00;99.90;;;;;;4968345;28;20129;-79
2022/08/11 02:08:00;;;;;;;7.53;5.15;;;18.00;99.90;;;;;;4970544;28;20057;-80
2022/08/11 02:13:56;;;;;;;6.50;5.18;;;17.90;99.90;;;;;;4991720;28;20057;-80
2022/08/11 02:16:53;;;;;;;7.78;5.75;;;17.90;99.90;;;;;;4972577;28;20074;-81
2022/08/11 02:25:36;;;;;;;5.50;4.70;;;17.80;99.90;;;;;;4984937;28;20051;-80
2022/08/11 02:28:27;;;;;;;6.78;5.38;;;17.80;99.90;;;;;;4986092;28;20051;-80
2022/08/11 02:34:42;;;;;;;7.90;5.40;;;17.80;99.90;;;;;;4985997;28;20050;-80
2022/08/11 02:37:23;;;;;;;5.63;5.03;;;17.70;99.90;;;;;;4952971;28;20057;-80
2022/08/11 02:39:59;;;;;;;8.30;5.30;;;17.70;99.90;;;;;;4966961;28;20054;-81
2022/08/11 02:42:31;;;;;;;6.18;4.68;;;17.70;99.90;;;;;;4968631;28;20404;-81
2022/08/11 02:45:05;;;;;;;5.55;4.75;;;17.70;99.90;;;;;;4985606;28;20138;-81
2022/08/11 02:49:52;;;;;;;7.65;4.97;;;17.70;99.90;;;;;;4971550;28;20094;-81
2022/08/11 02:50:35;;;;;;;6.65;4.80;;;17.70;99.90;;;;;;4987374;28;20137;-82
2022/08/11 02:53:07;;;;;;;7.68;5.40;;;17.60;99.90;;;;;;4955922;28;20104;-81
2022/08/11 02:55:47;;;;;;;6.97;5.50;;;17.60;99.90;;;;;;4971014;28;20526;-80
2022/08/11 03:02:06;;;;;;;8.88;4.78;;;17.20;99.90;;;;;;4898459;29;20470;-80
2022/08/11 03:04:59;;;;;;;7.72;5.13;;;17.50;99.90;;;;;;4954515;28;20055;-80
2022/08/11 03:07:37;;;;;;;9.02;5.47;;;17.50;99.90;;;;;;4971095;28;20511;-80
2022/08/11 03:10:02;;;;;;;6.40;4.82;;;17.40;99.90;;;;;;4979325;28;20043;-80
2022/08/11 03:18:44;;;;;;;5.47;4.97;;;17.40;99.90;;;;;;4974577;28;20105;-81
2022/08/11 03:21:31;;;;;;;6.68;5.05;;;17.30;99.90;;;;;;4944275;28;20061;-82
2022/08/11 03:24:00;;;;;;;9.85;5.50;;;17.30;99.90;;;;;;4950904;28;20054;-81
2022/08/11 03:26:42;;;;;;;6.57;4.68;;;17.30;99.90;;;;;;4991072;28;20053;-82
2022/08/11 03:29:18;;;;;;;6.03;4.43;;;17.30;99.90;;;;;;4974966;28;20050;-81
2022/08/11 03:32:08;;;;;;;9.43;5.75;;;17.20;99.90;;;;;;4990945;28;20047;-81
2022/08/11 03:34:38;;;;;;;8.02;6.05;;;17.20;99.90;;;;;;4974442;28;20142;-82
2022/08/11 03:37:50;;;;;;;5.70;4.53;;;17.20;99.90;;;;;;4959536;28;20043;-81
2022/08/11 03:44:25;;;;;;;7.88;4.90;;;17.10;99.90;;;;;;4905270;29;20075;-80
2022/08/11 03:47:22;;;;;;;9.40;5.65;;;17.00;99.90;;;;;;4985039;28;20192;-78
2022/08/11 03:50:35;;;;;;;7.05;5.30;;;17.00;99.90;;;;;;4975205;28;20078;-80
2022/08/11 03:53:29;;;;;;;6.93;5.40;;;17.00;99.90;;;;;;4950679;28;20066;-79
2022/08/11 03:56:10;;;;;;;6.28;5.18;;;16.90;99.90;;;;;;4990233;28;20046;-80
2022/08/11 03:58:48;;;;;;;6.70;5.72;;;16.90;99.90;;;;;;4974343;28;20051;-80
2022/08/11 04:01:59;;;;;;;6.13;4.93;;;16.90;99.90;;;;;;4976094;28;20051;-80
2022/08/11 04:05:06;;;;;;;8.73;5.50;;;16.90;99.90;;;;;;4953952;28;20142;-80
2022/08/11 04:08:14;;;;;;;7.65;5.32;;;16.80;99.90;;;;;;4988635;28;20125;-80
2022/08/11 04:11:04;;;;;;;9.65;6.15;;;16.80;99.90;;;;;;4928389;28;20054;-81
2022/08/11 04:17:32;;;;;;;7.35;4.85;;;16.80;99.90;;;;;;4990330;28;20065;-81
2022/08/11 04:20:41;;;;;;;6.85;5.72;;;16.80;99.90;;;;;;4990290;28;20050;-80
2022/08/11 04:23:32;;;;;;;7.15;5.45;;;16.80;99.90;;;;;;4992220;28;20050;-81
2022/08/11 04:26:24;;;;;;;7.82;6.13;;;16.80;99.90;;;;;;4989295;28;20512;-82
2022/08/11 04:29:13;;;;;;;8.50;5.43;;;16.80;99.90;;;;;;4948117;28;20062;-81
2022/08/11 04:32:14;;;;;;;7.80;5.30;;;16.80;99.90;;;;;;4979510;28;20047;-82
2022/08/11 04:34:58;;;;;;;6.75;6.00;;;16.70;99.90;;;;;;4924098;28;20054;-81
2022/08/11 04:37:49;;;;;;;8.18;6.60;;;16.70;99.90;;;;;;4966952;28;20047;-81
2022/08/11 04:41:13;;;;;;;8.10;6.03;;;16.70;99.90;;;;;;4975905;28;20130;-81
2022/08/11 04:44:20;;;;;;;7.80;5.40;;;16.70;99.90;;;;;;4907705;29;20058;-80
2022/08/11 05:02:47;;;;;;;7.43;5.50;;;16.80;99.90;;;;;;4989801;28;20445;-79
2022/08/11 05:05:31;;;;;;;7.13;5.35;;;16.80;99.90;;;;;;4974369;28;20046;-83
2022/08/11 05:08:21;;;;;;;8.38;5.53;;;16.80;99.90;;;;;;4988275;28;20113;-81
2022/08/11 05:11:01;;;;;;;8.45;5.53;;;16.80;99.90;;;;;;4966994;28;20046;-81
2022/08/11 05:37:03;;;;;;;7.43;6.03;;;17.20;99.90;;;;;;4990367;28;20050;-81
2022/08/11 05:56:58;;;;;;;8.05;5.50;;;17.40;99.90;;;;;;4990152;28;20074;-79
2022/08/11 05:59:29;;;;;;;9.82;6.35;;;17.60;99.90;;;;;;4972649;28;20054;-81
2022/08/11 06:02:03;;;;;;;8.50;6.15;;;17.60;99.90;;;;;;4942654;28;20046;-81
2022/08/11 06:04:29;;;;;;;6.13;4.30;;;17.70;99.90;;;;;;4978635;28;20058;-81
2022/08/11 06:06:59;;;;;;;7.97;5.97;;;17.80;99.90;;;;;;4941465;28;20081;-81
2022/08/11 06:09:31;;;;;;;6.63;4.88;;;17.90;99.90;;;;;;4952558;28;20060;-80
2022/08/11 06:12:05;;;;;;;11.32;6.28;;;18.00;99.90;;;;;;4977729;28;20054;-80
2022/08/11 06:14:32;;;;;;;9.07;6.05;;;18.10;99.90;;;;;;4960252;28;20047;-81
2022/08/11 06:17:01;;;;;;;8.43;6.35;;;18.20;99.90;;;;;;4975347;28;20141;-82
2022/08/11 06:19:39;;;;;;;6.30;5.40;;;18.30;99.90;;;;;;4926595;28;20046;-81
2022/08/11 06:22:09;;;;;;;9.00;6.00;;;19.50;99.90;;;;;;4991598;28;20058;-79
2022/08/11 06:24:38;;;;;;;9.57;6.30;;;18.50;99.90;;;;;;4957521;28;20046;-79
2022/08/11 06:27:05;;;;;;;7.40;6.25;;;18.60;99.90;;;;;;4987250;28;21812;-79
2022/08/11 06:29:35;;;;;;;9.43;5.88;;;18.80;99.90;;;;;;4960874;28;20386;-78
2022/08/11 06:32:02;;;;;;;7.70;5.65;;;18.90;99.90;;;;;;4976211;28;20039;-77
2022/08/11 06:34:58;;;;;;;8.65;5.80;;;19.00;99.90;;;;;;4970785;28;20505;-77
2022/08/11 06:37:57;;;;;;;9.55;6.25;;;19.20;99.90;;;;;;4957981;28;20038;-78
2022/08/11 06:41:29;;;;;;;7.18;4.35;;;19.40;99.90;;;;;;4971868;28;20046;-79
2022/08/11 06:43:57;;;;;;;5.75;4.90;;;19.50;99.90;;;;;;4957713;28;20057;-79
2022/08/11 06:46:38;;;;;;;5.82;4.50;;;19.60;99.90;;;;;;4988381;28;20058;-80
2022/08/11 06:52:03;;;;;;;7.95;5.60;;;20.00;99.90;;;;;;4992352;28;20046;-79
2022/08/11 06:54:54;;;;;;;7.32;5.30;;;20.10;99.90;;;;;;4966865;28;20065;-79
2022/08/11 07:03:11;;;;;;;7.60;5.30;;;20.70;99.90;;;;;;4990867;28;20074;-80
2022/08/11 07:05:37;;;;;;;7.70;5.20;;;21.00;99.90;;;;;;4962715;28;20050;-79
2022/08/11 07:15:40;;;;;;;6.25;4.45;;;21.40;99.90;;;;;;4991378;28;20054;-79
2022/08/11 07:17:23;;;;;;;6.63;3.83;;;21.90;99.90;;;;;;4946100;28;20057;-79
2022/08/11 07:31:25;;;;;;;5.18;3.28;;;23.10;99.90;;;;;;4962841;28;20046;-82
2022/08/11 07:34:05;;;;;;;3.85;2.85;;;23.30;99.90;;;;;;4997535;28;20050;-83
2022/08/11 07:36:33;;;;;;;4.80;2.92;;;23.50;99.90;;;;;;4965882;28;20046;-83
2022/08/11 07:39:01;;;;;;;3.67;2.67;;;23.80;99.90;;;;;;4997017;28;20052;-82
2022/08/11 07:41:31;;;;;;;4.78;3.40;;;24.00;99.90;;;;;;4950261;28;20060;-82
2022/08/11 07:44:08;;;;;;;5.00;3.00;;;24.30;99.90;;;;;;4936867;28;20049;-82
2022/08/11 07:52:27;;;;;;;5.32;3.80;;;24.90;99.90;;;;;;5001230;28;20057;-82
2022/08/11 07:54:55;;;;;;;6.63;4.35;;;25.20;99.90;;;;;;4967723;28;20129;-82
2022/08/11 08:19:23;;;;;;;4.35;2.90;;;27.20;99.90;;;;;;4980849;28;19940;-81
2022/08/11 08:21:49;;;;;;;5.70;2.97;;;27.40;99.90;;;;;;4950818;28;20533;-84
2022/08/11 08:24:21;;;;;;;4.43;3.10;;;27.60;99.90;;;;;;4981575;28;20090;-82
2022/08/11 08:26:57;;;;;;;3.88;2.30;;;27.80;99.90;;;;;;4982426;28;20050;-82
2022/08/11 08:32:20;;;;;;;5.40;2.50;;;28.30;99.90;;;;;;4998352;28;20389;-83
2022/08/11 08:34:53;;;;;;;5.40;2.70;;;28.60;99.90;;;;;;4981875;28;20058;-82
2022/08/11 08:37:20;;;;;;;4.53;2.10;;;28.90;99.90;;;;;;4997736;28;20058;-82
2022/08/11 08:39:47;;;;;;;4.53;2.47;;;29.10;99.90;;;;;;4972495;28;20484;-82
2022/08/11 08:42:25;;;;;;;4.28;2.40;;;29.20;99.90;;;;;;4935013;28;20073;-83
2022/08/11 08:45:03;;;;;;;6.22;3.05;;;29.40;99.90;;;;;;4953600;28;20050;-83
2022/08/11 08:47:34;;;;;;;5.20;2.47;;;29.60;99.90;;;;;;4983715;28;20048;-82
2022/08/11 08:50:06;;;;;;;3.58;2.20;;;29.80;99.90;;;;;;4979526;28;20149;-81
2022/08/11 08:52:39;;;;;;;3.70;2.10;;;29.90;99.90;;;;;;4957415;28;20480;-81
2022/08/11 08:55:08;;;;;;;3.17;1.80;;;30.30;99.90;;;;;;4945633;28;20097;-80
2022/08/11 08:57:35;;;;;;;6.40;2.00;;;30.50;99.80;;;;;;4964686;28;20471;-80
2022/08/11 09:00:06;;;;;;;2.85;1.45;;;30.70;99.10;;;;;;4948950;28;20129;-83
2022/08/11 09:02:32;;;;;;;2.95;1.50;;;30.40;98.60;;;;;;4988215;28;20053;-84
2022/08/11 09:05:03;;;;;;;3.85;1.55;;;31.10;98.20;;;;;;4962806;28;20037;-84
2022/08/11 09:07:31;;;;;;;3.22;1.45;;;31.20;96.80;;;;;;4957424;28;20058;-84
2022/08/11 09:09:58;;;;;;;3.28;1.60;;;31.50;96.10;;;;;;4951800;28;20078;-84
2022/08/11 09:12:28;;;;;;;4.20;1.60;;;31.70;95.40;;;;;;4952189;28;20830;-82
2022/08/11 09:15:06;;;;;;;3.05;1.77;;;31.80;93.90;;;;;;4950520;28;20373;-83
2022/08/11 09:17:35;;;;;;;4.72;1.88;;;31.90;94.30;;;;;;4981255;28;20046;-83
2022/08/11 09:20:10;;;;;;;4.40;1.48;;;32.10;93.80;;;;;;4974353;28;20151;-85
2022/08/11 09:28:12;;;;;;;4.13;1.48;;;32.70;92.00;;;;;;4995099;28;20411;-80
2022/08/11 09:30:42;;;;;;;3.80;1.42;;;32.90;90.70;;;;;;4962477;28;20077;-80
2022/08/11 09:33:10;;;;;;;3.20;1.30;;;32.90;87.60;;;;;;4996897;28;20039;-81
2022/08/11 09:35:37;;;;;;;3.38;1.30;;;33.10;87.10;;;;;;4977912;28;20047;-83
2022/08/11 09:40:51;;;;;;;2.45;1.00;;;33.50;81.70;;;;;;4997921;28;20050;-80
2022/08/11 09:46:02;;;;;;;;;;;33.60;79.00;;;;;;4963888;28;20054;-80
2022/08/11 09:48:32;;;;;;;2.05;1.00;;;33.90;74.80;;;;;;4975776;28;19996;-80
2022/08/11 09:51:00;;;;;;;3.70;1.20;;;34.00;77.40;;;;;;4989826;28;20059;-81
2022/08/11 09:53:29;;;;;;;3.60;0.90;;;34.20;75.40;;;;;;4961468;28;20444;-79
2022/08/11 09:55:55;;;;;;;3.25;1.20;;;34.40;74.50;;;;;;4960200;28;20043;-80
2022/08/11 09:58:21;;;;;;;3.53;1.02;;;34.60;74.20;;;;;;4958689;28;20055;-79
2022/08/11 10:00:49;;;;;;;3.35;1.10;;;34.80;70.30;;;;;;4959582;28;20055;-87
2022/08/11 10:03:20;;;;;;;1.45;0.90;;;34.90;69.60;;;;;;4973701;28;20055;-80
2022/08/11 10:08:52;;;;;;;1.70;0.98;;;35.20;68.40;;;;;;4957089;28;20052;-81
2022/08/11 10:11:22;;;;;;;4.22;1.00;;;35.30;66.50;;;;;;4948017;28;20479;-82
2022/08/11 10:16:40;;;;;;;2.30;0.80;;;35.50;64.60;;;;;;4992906;28;20460;-79
2022/08/11 10:19:08;;;;;;;3.95;1.25;;;35.70;64.90;;;;;;4943402;28;20086;-80
2022/08/11 10:26:48;;;;;;;2.42;1.10;;;35.70;65.50;;;;;;4978106;28;20043;-81
2022/08/11 10:27:17;;;;;;;;;;;35.80;62.70;;;;;;4986656;28;20051;-79
2022/08/11 10:35:17;;;;;;;1.88;0.88;;;36.20;62.30;;;;;;4983313;28;20055;-80
2022/08/11 10:37:45;;;;;;;2.63;0.85;;;36.50;61.00;;;;;;4941480;28;20057;-80
2022/08/11 10:40:16;;;;;;;2.63;1.00;;;36.60;60.20;;;;;;4952471;28;20077;-81
2022/08/11 10:43:01;;;;;;;4.53;1.00;;;36.60;58.30;;;;;;4983817;28;20046;-79
2022/08/11 10:48:15;;;;;;;3.50;1.05;;;36.60;58.80;;;;;;4951690;28;20046;-81
2022/08/11 10:59:03;;;;;;;2.90;1.10;;;36.70;57.80;;;;;;4986632;28;20047;-81
2022/08/11 11:01:41;;;;;;;1.63;1.00;;;36.60;57.30;;;;;;4958456;28;20046;-83
2022/08/11 11:04:15;;;;;;;2.92;1.23;;;36.60;57.00;;;;;;4989678;28;20138;-84
2022/08/11 11:06:55;;;;;;;1.35;0.90;;;36.60;56.50;;;;;;4957887;28;20043;-79
2022/08/11 11:09:31;;;;;;;2.92;1.20;;;36.70;56.50;;;;;;4994114;28;20043;-79
2022/08/11 11:18:06;;;;;;;2.97;1.30;;;36.90;57.00;;;;;;4994277;28;20046;-78
2022/08/11 11:20:39;;;;;;;3.72;1.30;;;37.00;55.70;;;;;;4961369;28;20136;-78
2022/08/11 11:23:13;;;;;;;6.07;1.40;;;37.10;55.40;;;;;;4994630;28;20055;-79
2022/08/11 11:26:08;;;;;;;3.17;1.25;;;37.30;56.60;;;;;;4963585;28;20136;-77
2022/08/11 11:28:37;;;;;;;2.17;1.10;;;37.40;56.00;;;;;;4944348;28;20094;-78
2022/08/11 11:31:25;;;;;;;2.10;1.00;;;37.30;56.70;;;;;;4974561;28;20481;-78
2022/08/11 11:34:12;;;;;;;4.35;1.20;;;37.30;53.40;;;;;;4948787;28;20078;-79
2022/08/11 11:36:47;;;;;;;2.55;1.33;;;36.90;53.40;;;;;;4998591;28;20130;-79
2022/08/11 11:39:23;;;;;;;4.70;1.20;;;36.70;53.80;;;;;;4987747;28;20047;-79
2022/08/11 11:41:53;;;;;;;3.25;1.10;;;36.90;54.10;;;;;;4999396;28;20114;-79
2022/08/11 11:44:21;;;;;;;1.58;0.90;;;37.10;54.30;;;;;;4996866;28;20134;-78
2022/08/11 11:46:48;;;;;;;4.05;1.10;;;37.40;54.10;;;;;;4968965;28;20047;-79
2022/08/11 11:49:17;;;;;;;1.80;1.08;;;37.80;53.40;;;;;;4975827;28;20109;-80
2022/08/11 11:51:46;;;;;;;3.53;1.10;;;38.00;52.40;;;;;;4963642;28;20525;-79
2022/08/11 11:54:14;;;;;;;2.47;1.00;;;38.10;52.90;;;;;;4953058;28;20426;-79
2022/08/11 11:56:42;;;;;;;2.42;1.05;;;38.30;52.30;;;;;;4977743;28;20126;-80
2022/08/11 12:01:54;;;;;;;2.03;1.08;;;38.30;51.70;;;;;;4946220;28;20055;-82
2022/08/11 12:04:21;;;;;;;2.58;0.95;;;38.40;52.00;;;;;;4962156;28;20134;-82
2022/08/11 12:06:48;;;;;;;2.03;0.90;;;38.60;52.20;;;;;;4975253;28;20039;-81
2022/08/11 12:09:17;;;;;;;2.67;1.10;;;38.70;51.60;;;;;;4955768;28;20062;-80
2022/08/11 12:14:28;;;;;;;;;;;39.10;50.90;;;;;;4970730;28;20055;-82
2022/08/11 12:16:55;;;;;;;4.70;0.95;;;39.30;51.00;;;;;;4955839;28;19926;-78
2022/08/11 12:19:27;;;;;;;2.50;1.02;;;39.40;51.80;;;;;;4970991;28;20058;-81
2022/08/11 12:27:29;;;;;;;4.10;1.17;;;39.40;53.90;;;;;;4971444;28;20059;-78
2022/08/11 12:30:08;;;;;;;2.80;1.10;;;39.00;54.60;;;;;;4961645;28;20062;-79
2022/08/11 12:32:35;;;;;;;3.58;1.30;;;39.00;54.90;;;;;;4971544;28;20842;-79
2022/08/11 12:35:01;;;;;;;5.85;1.40;;;38.90;54.90;;;;;;4968205;28;20062;-78
2022/08/11 12:37:34;;;;;;;4.00;1.33;;;38.70;55.50;;;;;;4970375;28;20110;-79
2022/08/11 12:45:39;;;;;;;4.30;1.40;;;38.60;56.70;;;;;;4979107;28;20485;-80
2022/08/11 12:54:09;;;;;;;3.25;1.45;;;38.60;57.80;;;;;;4995048;28;20062;-81
2022/08/11 13:05:06;;;;;;;2.95;1.25;;;38.70;56.50;;;;;;4965856;28;20114;-80
2022/08/11 13:07:32;;;;;;;2.90;1.30;;;38.60;56.20;;;;;;4963391;28;20054;-80
2022/08/11 13:10:01;;;;;;;3.53;1.30;;;38.50;55.70;;;;;;4947744;28;20055;-79
2022/08/11 13:12:47;;;;;;;4.75;1.10;;;38.40;55.80;;;;;;4961120;28;20047;-79
2022/08/11 13:15:22;;;;;;;2.40;1.23;;;38.30;55.90;;;;;;4977797;28;20461;-80
2022/08/11 13:17:51;;;;;;;4.05;1.10;;;38.30;56.10;;;;;;4992994;28;20059;-80
2022/08/11 13:20:20;;;;;;;4.88;1.20;;;38.30;55.40;;;;;;4974351;28;20058;-80
2022/08/11 13:22:50;;;;;;;2.80;1.02;;;38.40;55.40;;;;;;4959344;28;20058;-77
2022/08/11 13:25:18;;;;;;;3.95;0.95;;;38.60;55.50;;;;;;4963143;28;20516;-79
2022/08/11 13:27:46;;;;;;;3.13;0.93;;;38.70;55.20;;;;;;4979871;28;20054;-79
2022/08/11 13:33:01;;;;;;;2.00;1.10;;;38.70;54.70;;;;;;4961476;28;20051;-79
2022/08/11 13:35:31;;;;;;;2.05;1.10;;;38.60;54.30;;;;;;4960146;28;20046;-80
2022/08/11 13:38:01;;;;;;;1.67;0.98;;;38.50;54.00;;;;;;4963709;28;20035;-81
2022/08/11 13:40:28;;;;;;;5.25;1.27;;;38.50;54.20;;;;;;4960474;28;20081;-79
2022/08/11 13:42:54;;;;;;;2.38;1.00;;;38.40;54.10;;;;;;4960803;28;20924;-80
2022/08/11 13:45:25;;;;;;;2.70;1.00;;;38.40;54.30;;;;;;4977740;28;20050;-80
2022/08/11 13:47:53;;;;;;;3.55;1.20;;;38.30;54.00;;;;;;4946012;28;20521;-79
2022/08/11 13:50:20;;;;;;;3.42;0.90;;;38.30;54.40;;;;;;4961714;28;20055;-76
2022/08/11 13:52:48;;;;;;;3.95;1.00;;;38.20;53.90;;;;;;4972198;28;20125;-79
2022/08/11 13:55:20;;;;;;;1.65;0.90;;;38.30;54.40;;;;;;4996277;28;20129;-81
2022/08/11 13:57:52;;;;;;;2.70;1.00;;;38.40;54.70;;;;;;4948228;28;20133;-81
2022/08/11 14:00:19;;;;;;;3.10;1.20;;;38.40;54.40;;;;;;4955096;28;20063;-80
2022/08/11 14:02:48;;;;;;;2.47;1.10;;;38.30;54.20;;;;;;4981284;28;20046;-79
2022/08/11 14:05:16;;;;;;;2.72;1.25;;;38.20;54.20;;;;;;4995127;28;20058;-81
2022/08/11 14:07:51;;;;;;;2.95;0.90;;;38.10;54.20;;;;;;4998633;28;20082;-79
2022/08/11 14:10:20;;;;;;;2.35;1.20;;;38.10;54.60;;;;;;4965848;28;20507;-78
2022/08/11 14:16:28;;;;;;;5.78;1.27;;;38.10;53.80;;;;;;4904176;29;20059;-79
2022/08/11 14:18:59;;;;;;;3.35;1.27;;;38.00;54.00;;;;;;4919798;29;20060;-77
2022/08/11 14:24:15;;;;;;;5.30;1.20;;;37.50;54.40;;;;;;4975031;28;20042;-81
2022/08/11 14:26:42;;;;;;;3.03;1.20;;;37.40;55.00;;;;;;4947009;28;20069;-79
2022/08/11 14:29:18;;;;;;;3.65;1.30;;;37.40;54.90;;;;;;4965604;28;20059;-80
2022/08/11 14:31:52;;;;;;;4.68;1.20;;;37.50;54.90;;;;;;4994728;28;20092;-80
2022/08/11 14:34:22;;;;;;;2.53;1.00;;;37.40;55.10;;;;;;4952910;28;20077;-79
2022/08/11 14:36:51;;;;;;;5.30;1.40;;;37.30;55.20;;;;;;4976967;28;20050;-78
2022/08/11 14:39:23;;;;;;;2.35;1.15;;;37.20;54.60;;;;;;4961546;28;20049;-78
2022/08/11 14:47:23;;;;;;;3.03;1.30;;;37.20;55.00;;;;;;4995293;28;20093;-80
2022/08/11 14:49:50;;;;;;;3.05;1.33;;;37.20;54.70;;;;;;4929015;28;20069;-77
2022/08/11 14:52:19;;;;;;;3.65;1.25;;;37.20;54.80;;;;;;4929759;28;20061;-80
2022/08/11 14:57:36;;;;;;;3.85;1.00;;;37.10;54.10;;;;;;4995244;28;20137;-78
2022/08/11 15:00:07;;;;;;;2.08;0.88;;;37.10;54.30;;;;;;4992971;28;20051;-79
2022/08/11 15:05:24;;;;;;;3.58;1.23;;;37.00;53.70;;;;;;4993392;28;20129;-80
2022/08/11 15:07:51;;;;;;;3.67;1.33;;;36.90;53.80;;;;;;4993722;28;20047;-79
2022/08/11 15:10:18;;;;;;;2.63;1.20;;;36.80;53.40;;;;;;4988830;28;20138;-78
2022/08/11 15:12:44;;;;;;;2.28;1.20;;;36.80;53.90;;;;;;4996989;28;20055;-79
2022/08/11 15:17:59;;;;;;;2.85;1.13;;;36.60;53.90;;;;;;4978779;28;20054;-77
2022/08/11 15:25:59;;;;;;;2.95;1.00;;;36.30;54.60;;;;;;4996049;28;20495;-77
2022/08/11 15:39:37;;;;;;;3.58;1.20;;;36.00;54.80;;;;;;4981026;28;20055;-79
2022/08/11 15:47:58;;;;;;;3.38;1.10;;;35.40;54.70;;;;;;4999417;28;20047;-80
2022/08/11 15:50:29;;;;;;;4.50;0.95;;;35.20;55.50;;;;;;4966760;28;20074;-81
2022/08/11 15:53:01;;;;;;;3.53;1.13;;;35.00;55.50;;;;;;4975648;28;20137;-81
2022/08/11 15:55:33;;;;;;;5.15;2.65;;;34.80;55.20;;;;;;4996328;28;20049;-80
2022/08/11 16:06:26;;;;;;;6.15;1.48;;;34.20;56.20;;;;;;4959533;28;20062;-83
2022/08/11 16:08:55;;;;;;;3.80;1.27;;;34.00;55.70;;;;;;4948891;28;20080;-83
2022/08/11 16:11:21;;;;;;;2.67;1.30;;;33.70;55.90;;;;;;4946738;28;20046;-79
2022/08/11 16:16:37;;;;;;;2.88;1.52;;;33.40;56.60;;;;;;4987623;28;20046;-77
2022/08/11 16:19:07;;;;;;;2.83;1.27;;;33.30;56.50;;;;;;4956519;28;20133;-80
2022/08/11 16:21:35;;;;;;;2.80;1.15;;;33.20;56.60;;;;;;4974736;28;20239;-82
2022/08/11 16:24:05;;;;;;;2.63;0.98;;;33.00;56.50;;;;;;4977179;28;20045;-80
2022/08/11 16:26:32;;;;;;;3.42;0.90;;;32.90;57.20;;;;;;4996087;28;20046;-81
2022/08/11 16:29:01;;;;;;;3.92;1.30;;;32.80;57.10;;;;;;4964239;28;20054;-76
2022/08/11 16:31:28;;;;;;;4.03;1.00;;;32.60;56.90;;;;;;4977218;28;20464;-81
2022/08/11 16:33:55;;;;;;;2.65;1.40;;;32.40;56.80;;;;;;4967657;28;21083;-79
2022/08/11 16:39:12;;;;;;;2.90;1.05;;;32.00;57.70;;;;;;4959710;28;21878;-79
2022/08/11 16:47:16;;;;;;;4.47;1.42;;;31.60;59.00;;;;;;4969267;28;20093;-77
2022/08/11 16:49:51;;;;;;;2.70;1.10;;;31.50;59.10;;;;;;4948701;28;1114081;-81
2022/08/11 16:52:17;;;;;;;3.38;1.30;;;31.40;60.00;;;;;;4971620;28;20310;-79
2022/08/11 16:54:46;;;;;;;5.35;1.30;;;31.30;60.00;;;;;;4939954;28;20134;-79
2022/08/11 17:00:06;;;;;;;4.85;1.60;;;31.00;59.30;;;;;;4985423;28;20047;-79
2022/08/11 17:13:59;;;;;;;2.20;1.13;;;30.20;62.20;;;;;;4993539;28;20512;-81
2022/08/11 17:16:38;;;;;;;3.17;1.15;;;30.10;62.40;;;;;;4977858;28;20059;-81
2022/08/11 17:19:20;;;;;;;3.60;1.10;;;30.10;63.50;;;;;;4977698;28;20138;-82
2022/08/11 17:24:36;;;;;;;3.35;1.20;;;29.80;63.70;;;;;;4993474;28;20122;-81
2022/08/11 17:27:04;;;;;;;2.70;0.93;;;29.60;63.90;;;;;;4959337;28;20047;-81
2022/08/11 17:29:32;;;;;;;2.90;1.10;;;29.50;63.90;;;;;;4977860;28;20535;-78
2022/08/11 17:37:35;;;;;;;3.15;1.17;;;29.10;64.70;;;;;;4961725;28;20051;-78
2022/08/11 17:40:04;;;;;;;2.65;1.10;;;28.90;64.70;;;;;;4992651;28;20059;-78
2022/08/11 17:50:55;;;;;;;5.38;1.60;;;28.50;67.20;;;;;;4995126;28;20065;-79
2022/08/11 18:01:38;;;;;;;3.35;1.20;;;28.00;67.90;;;;;;4975682;28;20062;-80
2022/08/11 18:04:08;;;;;;;2.90;1.15;;;27.90;68.30;;;;;;4992351;28;20054;-80
2022/08/11 18:06:36;;;;;;;3.05;1.30;;;27.70;68.30;;;;;;4977765;28;20078;-78
